Boiling Springs, North Carolina
Current Conditions -  °F | °C
As of 8:55 AM on Wednesday 26 Nov 2014 (Local Time) from KEHO Reporting Station
Moderate Rain Moderate Rain  
Wind Chill: 40°   Ceiling: 2300
Heat Index: 44°   Visibility: 5mi
Dew Point: 43°   Wind: 7mph
Humidity: 97%   Direction: 310°NW
Pressure: 30.01"   Gusts: NA
Location:  35.25°N, 81.67°W
Report Text: KEHO 261355Z AUTO 31006KT 5SM RA SCT005 SCT011 OVC023 07/06 A3001 RMK AO2 P0010 T00650061
Loading
Personal Weather Stations






























Interactive Weather Map New forecast layout! Learn more

10-Day Weather Forecast

Advertisements
Track Severe Weather on mobile